Time;durP1;ratioP1;P1;durP2;ratioP2;P2;SDS_P1;SDS_P2;PMS_P1;PMS_P2;Temp;Humidity;BMP_temperature;BMP_pressure;BME280_temperature;BME280_humidity;BME280_pressure;Samples;Min_cycle;Max_cycle;Signal;HPM_P1;HPM_P2
2022/01/13 00:01:00;;;;;;;35.83;17.90;;;;;;;5.66;100.00;103931.88;4948009;28;20230;-81
2022/01/13 00:03:25;;;;;;;31.73;15.53;;;;;;;4.80;100.00;103804.78;4957103;28;20210;-81
2022/01/13 00:05:51;;;;;;;29.07;14.90;;;;;;;5.50;100.00;103908.94;4954876;28;20249;-81
2022/01/13 00:08:17;;;;;;;34.07;16.53;;;;;;;5.58;100.00;103925.31;4948739;28;20674;-81
2022/01/13 00:10:42;;;;;;;31.73;14.83;;;;;;;5.33;100.00;103897.47;4970351;28;20189;-82
2022/01/13 00:13:10;;;;;;;25.00;15.43;;;;;;;4.93;100.00;103804.00;4970551;28;20446;-82
2022/01/13 00:18:17;;;;;;;33.53;16.00;;;;;;;5.59;100.00;103927.88;4970232;28;20457;-83
2022/01/13 00:21:09;;;;;;;33.73;18.27;;;;;;;5.68;100.00;103922.97;4955680;28;20511;-80
2022/01/13 00:26:08;;;;;;;33.90;17.33;;;;;;;5.26;100.00;103858.84;4958008;28;20436;-79
2022/01/13 00:28:34;;;;;;;32.97;17.47;;;;;;;4.94;100.00;103799.53;4956107;28;20426;-80
2022/01/13 00:31:04;;;;;;;36.70;17.80;;;;;;;5.66;100.00;103929.22;4958197;28;20449;-81
2022/01/13 00:33:29;;;;;;;31.50;18.63;;;;;;;4.75;100.00;103768.69;4961084;28;20469;-81
2022/01/13 00:36:00;;;;;;;31.07;17.23;;;;;;;5.12;100.00;103827.72;4959096;28;20952;-81
2022/01/13 00:38:30;;;;;;;39.20;18.40;;;;;;;5.70;100.00;103929.94;4966817;28;20171;-82
2022/01/13 00:40:56;;;;;;;35.23;17.03;;;;;;;5.65;100.00;103935.50;4972737;28;20493;-82
2022/01/13 00:43:22;;;;;;;31.80;17.13;;;;;;;5.27;100.00;103865.91;4971427;28;22026;-81
2022/01/13 00:45:48;;;;;;;35.20;17.90;;;;;;;4.69;100.00;103805.41;4970124;28;20225;-82
2022/01/13 00:48:14;;;;;;;28.33;16.60;;;;;;;3.81;100.00;103636.78;4969987;28;20178;-81
2022/01/13 00:50:39;;;;;;;29.60;16.93;;;;;;;4.18;100.00;103696.66;4963941;28;20430;-80
2022/01/13 00:53:05;;;;;;;33.13;17.17;;;;;;;5.44;100.00;103908.34;4955545;28;20192;-79
2022/01/13 00:55:46;;;;;;;36.10;16.40;;;;;;;5.59;100.00;103933.22;4968636;28;20186;-81
2022/01/13 00:58:12;;;;;;;33.60;16.27;;;;;;;5.62;100.00;103926.84;4964152;28;20204;-80
2022/01/13 01:00:38;;;;;;;30.83;17.13;;;;;;;5.12;100.00;103857.00;4966366;28;20941;-82
2022/01/13 01:03:03;;;;;;;35.10;17.53;;;;;;;5.20;100.00;103854.72;4967371;28;20523;-81
2022/01/13 01:05:29;;;;;;;24.70;16.47;;;;;;;5.20;100.00;103851.22;4966096;28;20303;-81
2022/01/13 01:07:55;;;;;;;34.70;16.80;;;;;;;5.35;100.00;103865.41;4964299;28;20281;-80
2022/01/13 01:10:22;;;;;;;32.27;17.27;;;;;;;4.96;100.00;103801.16;4965986;28;20273;-81
2022/01/13 01:12:47;;;;;;;30.10;16.63;;;;;;;5.65;100.00;103916.88;4962947;28;20194;-80
2022/01/13 01:15:13;;;;;;;32.23;17.80;;;;;;;4.76;100.00;103773.06;4968330;28;20465;-80
2022/01/13 01:17:45;;;;;;;32.63;17.63;;;;;;;5.06;100.00;103836.03;4970245;28;20187;-80
2022/01/13 01:20:10;;;;;;;34.23;17.50;;;;;;;5.01;100.00;103840.81;4958787;28;20189;-80
2022/01/13 01:22:57;;;;;;;28.10;15.60;;;;;;;4.61;100.00;103767.78;4967961;28;20434;-78
2022/01/13 01:27:57;;;;;;;28.40;14.00;;;;;;;5.68;100.00;103928.31;4963124;28;20851;-81
2022/01/13 01:32:52;;;;;;;22.77;14.03;;;;;;;4.95;100.00;103834.03;4966384;28;20809;-83
2022/01/13 01:35:18;;;;;;;31.33;14.83;;;;;;;4.56;100.00;103765.38;4949049;28;20446;-82
2022/01/13 01:37:45;;;;;;;24.40;13.40;;;;;;;5.70;100.00;103931.72;4964549;28;20187;-81
2022/01/13 01:40:12;;;;;;;24.10;14.50;;;;;;;5.06;100.00;103829.88;4966929;28;20468;-81
2022/01/13 01:42:38;;;;;;;27.63;14.80;;;;;;;5.41;100.00;103887.25;4962842;28;20441;-81
2022/01/13 01:45:05;;;;;;;33.47;15.50;;;;;;;5.65;100.00;103926.66;4961247;28;20518;-80
2022/01/13 01:47:32;;;;;;;31.27;15.10;;;;;;;5.14;100.00;103817.84;4963921;28;20760;-81
2022/01/13 01:50:09;;;;;;;28.17;16.27;;;;;;;5.60;100.00;103907.44;4951824;28;20442;-81
2022/01/13 01:52:34;;;;;;;36.47;16.67;;;;;;;5.53;100.00;103904.28;4946702;28;20566;-81
2022/01/13 01:55:00;;;;;;;29.93;15.60;;;;;;;5.18;100.00;103851.31;4949357;28;20449;-80
2022/01/13 01:57:25;;;;;;;27.53;16.40;;;;;;;5.15;100.00;103859.50;4951370;28;20300;-81
2022/01/13 01:59:51;;;;;;;28.53;15.80;;;;;;;5.42;100.00;103912.91;4949405;28;20190;-82
2022/01/13 02:02:17;;;;;;;24.27;13.53;;;;;;;5.04;100.00;103856.59;4956515;28;20953;-80
2022/01/13 02:04:43;;;;;;;23.47;14.67;;;;;;;5.30;100.00;103879.03;4962771;28;20458;-81
2022/01/13 02:07:10;;;;;;;29.20;15.50;;;;;;;5.57;100.00;103913.81;4950081;28;20822;-81
2022/01/13 02:09:37;;;;;;;24.80;14.30;;;;;;;5.57;100.00;103913.81;4944387;28;20437;-80
2022/01/13 02:12:08;;;;;;;20.63;12.90;;;;;;;5.51;100.00;103906.19;4963401;28;20433;-80
2022/01/13 02:14:47;;;;;;;21.90;14.50;;;;;;;5.42;100.00;103896.06;4965684;28;20481;-80
2022/01/13 02:17:20;;;;;;;22.57;14.03;;;;;;;5.17;100.00;103857.56;4960580;28;20468;-80
2022/01/13 02:19:46;;;;;;;25.27;12.83;;;;;;;5.01;100.00;103859.44;4940158;28;20458;-80
2022/01/13 02:22:12;;;;;;;21.57;13.50;;;;;;;5.16;100.00;103866.50;4958355;28;20552;-81
2022/01/13 02:24:38;;;;;;;27.50;14.50;;;;;;;5.41;100.00;103905.88;4967884;28;20210;-82
2022/01/13 02:27:05;;;;;;;33.83;16.00;;;;;;;5.28;100.00;103899.53;4968857;28;20497;-81
2022/01/13 02:29:31;;;;;;;28.67;16.00;;;;;;;5.24;100.00;103881.19;4957829;28;20190;-83
2022/01/13 02:31:57;;;;;;;23.80;14.80;;;;;;;5.28;100.00;103891.56;4954278;28;21121;-80
2022/01/13 02:34:23;;;;;;;30.40;16.13;;;;;;;5.32;100.00;103908.19;4966188;28;20202;-80
2022/01/13 02:36:52;;;;;;;30.90;15.93;;;;;;;4.71;100.00;103788.41;4960801;28;20716;-81
2022/01/13 02:39:17;;;;;;;23.67;14.33;;;;;;;4.76;100.00;103830.69;4958154;28;20505;-80
2022/01/13 02:41:44;;;;;;;23.80;14.83;;;;;;;5.23;100.00;103914.91;4951399;28;20469;-81
2022/01/13 02:44:19;;;;;;;23.40;13.77;;;;;;;5.32;100.00;103902.88;4970698;28;20216;-81
2022/01/13 02:49:15;;;;;;;19.50;13.50;;;;;;;4.79;100.00;103806.59;4960678;28;20804;-82
2022/01/13 02:51:43;;;;;;;22.40;14.17;;;;;;;5.41;100.00;103886.38;4963362;28;20498;-81
2022/01/13 02:54:09;;;;;;;30.40;17.53;;;;;;;4.65;100.00;103785.25;4967272;28;20465;-81
2022/01/13 02:56:36;;;;;;;33.23;18.90;;;;;;;4.78;100.00;103794.25;4952216;28;20441;-81
2022/01/13 02:59:02;;;;;;;31.23;18.80;;;;;;;4.05;100.00;103683.22;4954184;28;20445;-81
2022/01/13 03:01:28;;;;;;;32.70;20.33;;;;;;;5.13;100.00;103845.41;4945744;28;20526;-80
2022/01/13 03:03:54;;;;;;;32.90;20.60;;;;;;;5.02;100.00;103828.34;4973882;28;20464;-80
2022/01/13 03:06:24;;;;;;;32.37;20.40;;;;;;;5.25;100.00;103885.56;4972079;28;20661;-80
2022/01/13 03:08:51;;;;;;;31.47;19.50;;;;;;;4.59;100.00;103745.72;4975776;28;20206;-80
2022/01/13 03:11:17;;;;;;;35.23;20.10;;;;;;;4.87;100.00;103822.13;4971065;28;20437;-82
2022/01/13 03:16:14;;;;;;;33.53;20.33;;;;;;;5.05;100.00;103857.44;4970990;28;21647;-75
2022/01/13 03:18:40;;;;;;;37.10;20.93;;;;;;;5.01;100.00;103854.09;4972131;28;20967;-74
2022/01/13 03:21:08;;;;;;;35.20;20.83;;;;;;;5.08;100.00;103868.75;4975754;28;20464;-75
2022/01/13 03:23:35;;;;;;;33.00;20.80;;;;;;;4.65;100.00;103770.16;4981571;28;20919;-76
2022/01/13 03:26:00;;;;;;;33.43;20.63;;;;;;;5.21;100.00;103859.13;4954316;28;20803;-75
2022/01/13 03:28:30;;;;;;;33.50;21.40;;;;;;;3.46;100.00;103606.88;4948706;28;20457;-75
2022/01/13 03:31:00;;;;;;;37.53;22.43;;;;;;;4.71;100.00;103783.09;4954352;28;20178;-76
2022/01/13 03:33:26;;;;;;;40.30;22.60;;;;;;;4.25;100.00;103711.31;4966428;28;20437;-75
2022/01/13 03:35:51;;;;;;;38.47;22.70;;;;;;;5.17;100.00;103848.72;4970373;28;20461;-75
2022/01/13 03:38:16;;;;;;;39.37;22.47;;;;;;;5.21;100.00;103856.47;4964531;28;20442;-75
2022/01/13 03:40:42;;;;;;;43.63;22.70;;;;;;;5.26;100.00;103853.50;4964161;28;20202;-74
2022/01/13 03:43:07;;;;;;;34.90;20.57;;;;;;;5.24;100.00;103836.81;4962649;28;20236;-75
2022/01/13 03:45:33;;;;;;;36.80;21.53;;;;;;;4.44;100.00;103721.75;4960628;28;20206;-75
2022/01/13 03:48:00;;;;;;;35.60;21.00;;;;;;;5.21;100.00;103860.94;4962300;28;20182;-75
2022/01/13 03:50:25;;;;;;;28.83;18.33;;;;;;;5.06;100.00;103867.13;4968892;28;21228;-74
2022/01/13 03:53:02;;;;;;;24.73;15.97;;;;;;;5.18;100.00;103866.44;4962555;28;20492;-75
2022/01/13 03:55:38;;;;;;;24.93;16.33;;;;;;;5.24;100.00;103871.41;4958828;28;20630;-76
2022/01/13 03:58:25;;;;;;;32.40;16.70;;;;;;;5.17;100.00;103867.38;4953931;28;20441;-74
2022/01/13 04:01:18;;;;;;;26.47;15.03;;;;;;;5.08;100.00;103859.91;4964932;28;20823;-75
2022/01/13 04:03:45;;;;;;;25.80;16.83;;;;;;;4.86;100.00;103809.75;4965899;28;20480;-75
2022/01/13 04:06:13;;;;;;;25.10;14.77;;;;;;;5.18;100.00;103866.44;4961099;28;20470;-75
2022/01/13 04:08:40;;;;;;;23.00;14.57;;;;;;;4.70;100.00;103797.34;4949591;28;20958;-76
2022/01/13 04:11:05;;;;;;;25.77;16.10;;;;;;;5.11;100.00;103859.75;4949912;28;21527;-75
2022/01/13 04:13:52;;;;;;;26.00;16.40;;;;;;;4.09;100.00;103737.03;4956681;28;20437;-75
2022/01/13 04:16:19;;;;;;;29.63;17.30;;;;;;;5.01;100.00;103811.53;4954557;28;20222;-74
2022/01/13 04:18:49;;;;;;;29.40;17.00;;;;;;;5.28;100.00;103856.09;4967021;28;20467;-76
2022/01/13 04:21:17;;;;;;;23.07;14.73;;;;;;;5.27;100.00;103852.59;4963389;28;21025;-76
2022/01/13 04:23:43;;;;;;;29.83;15.70;;;;;;;4.38;100.00;103708.81;4960684;28;20481;-75
2022/01/13 04:26:09;;;;;;;30.37;16.80;;;;;;;4.45;100.00;103704.00;4954285;28;20478;-75
2022/01/13 04:28:36;;;;;;;25.60;17.40;;;;;;;5.25;100.00;103842.97;4949910;28;27224;-74
2022/01/13 04:31:02;;;;;;;30.70;17.93;;;;;;;5.34;100.00;103839.75;4951771;28;20659;-75
2022/01/13 04:33:32;;;;;;;28.57;18.33;;;;;;;3.98;100.00;103671.22;4960854;28;20926;-75
2022/01/13 04:35:59;;;;;;;29.30;16.67;;;;;;;5.17;100.00;103848.72;4965822;28;20461;-75
2022/01/13 04:38:25;;;;;;;35.20;19.03;;;;;;;5.27;100.00;103859.72;4963664;28;21055;-76
2022/01/13 04:40:56;;;;;;;32.20;18.00;;;;;;;5.20;100.00;103851.22;4965638;28;20469;-75
2022/01/13 04:43:22;;;;;;;33.00;19.00;;;;;;;5.27;100.00;103847.25;4964516;28;20237;-76
2022/01/13 04:45:48;;;;;;;28.50;17.73;;;;;;;5.34;100.00;103858.41;4960733;28;20504;-76
2022/01/13 04:48:14;;;;;;;28.23;17.70;;;;;;;5.29;100.00;103853.34;4950159;28;20508;-75
2022/01/13 04:50:40;;;;;;;26.83;18.00;;;;;;;4.89;100.00;103767.00;4964282;28;20497;-75
2022/01/13 04:53:07;;;;;;;30.60;19.00;;;;;;;4.79;100.00;103761.38;4962689;28;20197;-75
2022/01/13 04:55:35;;;;;;;28.00;17.90;;;;;;;4.89;100.00;103785.63;4963187;28;20616;-76
2022/01/13 04:58:01;;;;;;;27.30;17.47;;;;;;;5.13;100.00;103845.41;4954325;28;20440;-75
2022/01/13 05:00:27;;;;;;;35.97;19.40;;;;;;;4.99;100.00;103816.09;4951194;28;21170;-75
2022/01/13 05:02:53;;;;;;;30.10;18.67;;;;;;;5.11;100.00;103828.66;4954703;28;20450;-77
2022/01/13 05:05:18;;;;;;;28.17;17.57;;;;;;;5.27;100.00;103847.25;4964295;28;21064;-76
2022/01/13 05:07:44;;;;;;;31.43;18.47;;;;;;;5.07;100.00;103791.69;4963762;28;20197;-76
2022/01/13 05:10:10;;;;;;;30.60;16.80;;;;;;;5.45;100.00;103869.28;4958370;28;20252;-76
2022/01/13 05:12:41;;;;;;;29.30;18.10;;;;;;;4.55;100.00;103720.28;4957927;28;20194;-75
2022/01/13 05:15:09;;;;;;;31.40;16.90;;;;;;;4.52;100.00;103743.44;4956982;28;20465;-77
2022/01/13 05:18:01;;;;;;;32.37;17.50;;;;;;;5.08;100.00;103817.34;4963857;28;20524;-75
2022/01/13 05:20:36;;;;;;;26.00;17.43;;;;;;;4.50;100.00;103720.53;4959064;28;20430;-76
2022/01/13 05:23:01;;;;;;;29.07;17.03;;;;;;;5.04;100.00;103818.50;4964739;28;20565;-76
2022/01/13 05:25:27;;;;;;;25.30;16.47;;;;;;;5.28;100.00;103856.09;4962632;28;21167;-75
2022/01/13 05:27:52;;;;;;;28.00;16.83;;;;;;;4.73;100.00;103751.97;4964184;28;20182;-75
2022/01/13 05:30:19;;;;;;;31.73;16.50;;;;;;;4.85;100.00;103808.03;4961209;28;20185;-74
2022/01/13 05:32:46;;;;;;;24.97;15.93;;;;;;;4.79;100.00;103789.78;4955175;28;20202;-74
2022/01/13 05:35:11;;;;;;;28.40;17.30;;;;;;;4.75;100.00;103766.03;4948191;28;20515;-76
2022/01/13 05:37:36;;;;;;;21.90;14.80;;;;;;;4.72;100.00;103752.06;4953771;28;20496;-76
2022/01/13 05:40:02;;;;;;;21.93;15.60;;;;;;;4.68;100.00;103750.50;4956546;28;20689;-76
2022/01/13 05:42:28;;;;;;;30.93;16.60;;;;;;;4.38;100.00;103708.81;4950571;28;20216;-76
2022/01/13 05:44:55;;;;;;;27.83;16.87;;;;;;;4.46;100.00;103692.44;4959782;28;20466;-76
2022/01/13 05:47:21;;;;;;;24.43;15.90;;;;;;;3.69;100.00;103574.63;4954581;28;20287;-75
2022/01/13 05:49:47;;;;;;;28.27;15.30;;;;;;;4.89;100.00;103754.59;4947406;28;20953;-75
2022/01/13 05:52:13;;;;;;;29.93;17.17;;;;;;;4.46;100.00;103689.78;4946127;28;20460;-75
2022/01/13 05:54:40;;;;;;;25.80;16.13;;;;;;;4.79;100.00;103752.56;4958606;28;20831;-76
2022/01/13 05:57:05;;;;;;;31.00;16.20;;;;;;;5.46;100.00;103820.38;4960974;28;20453;-75
2022/01/13 05:59:31;;;;;;;23.30;16.00;;;;;;;5.32;100.00;103831.88;4961991;28;20508;-75
2022/01/13 06:01:57;;;;;;;25.10;15.13;;;;;;;5.34;100.00;103821.97;4959381;28;20576;-75
2022/01/13 06:04:23;;;;;;;26.20;16.53;;;;;;;4.80;100.00;103739.16;4956829;28;20336;-75
2022/01/13 06:06:48;;;;;;;25.30;15.60;;;;;;;4.79;100.00;103726.81;4951163;28;20449;-76
2022/01/13 06:09:13;;;;;;;25.40;16.50;;;;;;;4.63;100.00;103686.09;4958932;28;20191;-76
2022/01/13 06:11:43;;;;;;;27.13;15.90;;;;;;;4.52;100.00;103679.63;4961379;28;20240;-75
2022/01/13 06:14:09;;;;;;;26.77;16.87;;;;;;;4.81;100.00;103724.06;4956626;28;20217;-75
2022/01/13 06:16:34;;;;;;;30.53;16.60;;;;;;;4.68;100.00;103706.16;4949608;28;20543;-76
2022/01/13 06:19:00;;;;;;;29.07;16.20;;;;;;;4.97;100.00;103759.44;4954201;28;20191;-75
2022/01/13 06:21:25;;;;;;;26.30;15.47;;;;;;;4.70;100.00;103703.44;4944900;28;20558;-76
2022/01/13 06:23:51;;;;;;;29.77;16.70;;;;;;;5.49;100.00;103822.00;4955930;28;20441;-75
2022/01/13 06:26:17;;;;;;;29.77;16.43;;;;;;;5.19;100.00;103806.94;4955438;28;20320;-76
2022/01/13 06:28:42;;;;;;;30.00;17.63;;;;;;;5.13;100.00;103794.84;4959110;28;20178;-76
2022/01/13 06:31:08;;;;;;;27.80;16.20;;;;;;;3.50;100.00;103529.69;4956975;28;20206;-77
2022/01/13 06:33:34;;;;;;;27.47;16.60;;;;;;;4.90;100.00;103761.63;4944822;28;20336;-76
2022/01/13 06:36:04;;;;;;;28.30;16.50;;;;;;;5.50;100.00;103811.28;4949222;28;20221;-76
2022/01/13 06:38:30;;;;;;;24.43;16.40;;;;;;;4.32;100.00;103665.78;4945924;28;20524;-76
2022/01/13 06:40:56;;;;;;;28.00;15.27;;;;;;;4.05;100.00;103600.88;4933098;28;20471;-77
2022/01/13 06:43:22;;;;;;;23.43;15.70;;;;;;;4.97;100.00;103756.78;4948819;28;20434;-77
2022/01/13 06:45:47;;;;;;;27.67;16.27;;;;;;;4.30;100.00;103641.94;4943796;28;20833;-75
2022/01/13 06:48:13;;;;;;;25.30;16.50;;;;;;;5.19;100.00;103767.03;4958776;28;20178;-76
2022/01/13 06:50:39;;;;;;;24.10;15.93;;;;;;;3.44;100.00;103494.66;4960031;28;20406;-75
2022/01/13 06:53:07;;;;;;;26.23;16.77;;;;;;;5.60;100.00;103808.91;4954338;28;20183;-75
2022/01/13 06:55:33;;;;;;;33.70;17.60;;;;;;;3.89;100.00;103546.06;4947198;28;20588;-76
2022/01/13 06:57:58;;;;;;;27.03;16.27;;;;;;;4.66;100.00;103638.09;4950495;28;20434;-75
2022/01/13 07:00:24;;;;;;;33.33;18.13;;;;;;;4.86;100.00;103698.03;4953744;28;20194;-73
2022/01/13 07:02:51;;;;;;;27.43;17.00;;;;;;;5.00;100.00;103719.34;4961995;28;20191;-75
2022/01/13 07:05:17;;;;;;;31.97;17.37;;;;;;;5.47;100.00;103799.94;4958267;28;20532;-76
2022/01/13 07:07:43;;;;;;;27.63;18.57;;;;;;;5.14;100.00;103756.63;4960418;28;20495;-76
2022/01/13 07:10:10;;;;;;;31.53;17.13;;;;;;;5.64;100.00;103807.75;4951192;28;20271;-75
2022/01/13 07:12:36;;;;;;;30.83;18.67;;;;;;;5.45;100.00;103808.03;4960667;28;20421;-77
2022/01/13 07:15:03;;;;;;;27.87;16.83;;;;;;;4.56;100.00;103642.22;4952148;28;20500;-75
2022/01/13 07:17:30;;;;;;;30.33;17.83;;;;;;;5.39;100.00;103779.13;4953175;28;20870;-75
2022/01/13 07:19:55;;;;;;;31.07;17.40;;;;;;;4.99;100.00;103697.22;4960824;28;20452;-77
2022/01/13 07:22:21;;;;;;;34.13;16.83;;;;;;;5.25;100.00;103755.16;4947657;28;20469;-75
2022/01/13 07:24:47;;;;;;;36.57;18.67;;;;;;;5.61;100.00;103794.63;4964477;28;20206;-76
2022/01/13 07:27:13;;;;;;;30.73;17.93;;;;;;;5.65;100.00;103823.66;4964448;28;20969;-76
2022/01/13 07:29:42;;;;;;;35.70;18.77;;;;;;;5.35;100.00;103758.94;4959084;28;20469;-76
2022/01/13 07:32:09;;;;;;;30.73;18.20;;;;;;;5.29;100.00;103775.28;4962311;28;20269;-76
2022/01/13 07:34:35;;;;;;;34.63;18.07;;;;;;;5.09;100.00;103728.59;4955352;28;20529;-77
2022/01/13 07:37:00;;;;;;;32.43;17.53;;;;;;;5.29;100.00;103780.63;4956250;28;20441;-78
2022/01/13 07:39:25;;;;;;;34.63;18.43;;;;;;;5.51;100.00;103823.63;4957676;28;20298;-77
2022/01/13 07:41:51;;;;;;;34.60;19.23;;;;;;;4.33;100.00;103640.91;4959791;28;20214;-78
2022/01/13 07:44:18;;;;;;;38.03;19.90;;;;;;;4.07;100.00;103587.50;4960766;28;20293;-76
2022/01/13 07:46:43;;;;;;;33.47;19.33;;;;;;;5.11;100.00;103746.19;4962384;28;20278;-77
2022/01/13 07:49:09;;;;;;;37.27;21.47;;;;;;;4.21;100.00;103615.91;4967729;28;20446;-76
2022/01/13 07:51:34;;;;;;;36.43;19.33;;;;;;;3.78;100.00;103530.75;4961991;28;20660;-77
2022/01/13 07:54:01;;;;;;;37.10;21.50;;;;;;;5.34;100.00;103786.53;4956244;28;20206;-76
2022/01/13 07:56:28;;;;;;;35.87;19.13;;;;;;;5.43;100.00;103826.75;4965710;28;20558;-76
2022/01/13 07:58:54;;;;;;;37.57;19.60;;;;;;;5.65;100.00;103823.66;4966744;28;20441;-77
2022/01/13 08:01:19;;;;;;;37.40;19.27;;;;;;;5.76;100.00;103849.66;4962838;28;20549;-76
2022/01/13 08:03:45;;;;;;;44.63;21.57;;;;;;;4.98;100.00;103723.94;4957737;28;20194;-76
2022/01/13 08:06:10;;;;;;;41.83;19.80;;;;;;;5.38;100.00;103788.03;4961204;28;20183;-75
2022/01/13 08:08:36;;;;;;;33.30;19.07;;;;;;;4.29;100.00;103606.56;4968190;28;20187;-76
2022/01/13 08:11:05;;;;;;;31.63;18.13;;;;;;;5.06;100.00;103766.03;4961096;28;20186;-78
2022/01/13 08:13:32;;;;;;;41.40;21.47;;;;;;;4.60;100.00;103649.94;4958783;28;20593;-78
2022/01/13 08:16:06;;;;;;;37.80;20.00;;;;;;;5.72;100.00;103825.94;4960609;28;20535;-76
2022/01/13 08:21:16;;;;;;;34.33;19.33;;;;;;;5.43;100.00;103788.63;4955426;28;20611;-76
2022/01/13 08:23:41;;;;;;;35.63;19.30;;;;;;;5.19;100.00;103751.06;4949203;28;20442;-76
2022/01/13 08:26:07;;;;;;;38.47;19.17;;;;;;;5.36;100.00;103771.34;4958966;28;20217;-76
2022/01/13 08:28:32;;;;;;;31.83;19.00;;;;;;;5.81;100.00;103849.34;4964571;28;20213;-76
2022/01/13 08:30:58;;;;;;;43.73;19.80;;;;;;;5.46;100.00;103808.88;4964085;28;20198;-76
2022/01/13 08:33:25;;;;;;;30.57;18.23;;;;;;;5.85;100.00;103866.88;4962837;28;20209;-77
2022/01/13 08:35:52;;;;;;;33.67;19.03;;;;;;;5.83;100.00;103866.97;4961184;28;20531;-75
2022/01/13 08:38:23;;;;;;;37.50;21.43;;;;;;;3.69;100.00;103523.31;4956145;28;20457;-75
2022/01/13 08:40:53;;;;;;;32.00;20.23;;;;;;;5.87;100.00;103863.19;4960973;28;20501;-75
2022/01/13 08:43:19;;;;;;;35.57;20.20;;;;;;;5.92;100.00;103859.34;4961518;28;20445;-75
2022/01/13 08:45:45;;;;;;;37.37;21.40;;;;;;;5.90;100.00;103864.75;4962162;28;20474;-73
2022/01/13 08:48:11;;;;;;;33.70;19.30;;;;;;;5.91;100.00;103860.31;4948138;28;20931;-74
2022/01/13 08:50:37;;;;;;;36.03;20.57;;;;;;;5.95;100.00;103876.03;4955920;28;20183;-75
2022/01/13 08:53:02;;;;;;;42.53;19.77;;;;;;;5.93;100.00;103856.66;4956760;28;20492;-75
2022/01/13 08:55:28;;;;;;;38.63;21.27;;;;;;;5.53;100.00;103803.13;4943744;28;20206;-76
2022/01/13 08:57:53;;;;;;;34.80;21.13;;;;;;;4.80;100.00;103691.28;4958791;28;21041;-75
2022/01/13 09:00:19;;;;;;;40.23;20.40;;;;;;;5.95;100.00;103869.84;4960985;28;20651;-74
2022/01/13 09:02:45;;;;;;;36.83;17.87;;;;;;;5.99;100.00;103842.94;4956418;28;20305;-74
2022/01/13 09:05:14;;;;;;;41.47;20.20;;;;;;;6.00;100.00;103857.13;4957564;28;20214;-75
2022/01/13 09:07:40;;;;;;;34.30;19.97;;;;;;;6.05;100.00;103871.88;4961411;28;20461;-74
2022/01/13 09:10:07;;;;;;;41.23;19.30;;;;;;;6.01;100.00;103865.00;4957495;28;20815;-73
2022/01/13 09:12:32;;;;;;;35.23;19.83;;;;;;;6.06;100.00;103867.41;4953716;28;20503;-74
2022/01/13 09:17:43;;;;;;;44.23;19.20;;;;;;;6.01;100.00;103834.84;4993508;23;20244;-76
2022/01/13 09:20:11;;;;;;;30.60;19.90;;;;;;;6.08;100.00;103844.19;4960893;28;20451;-76
2022/01/13 09:22:36;;;;;;;36.07;20.10;;;;;;;5.86;100.00;103799.31;4962442;28;20540;-76
2022/01/13 09:25:03;;;;;;;35.80;20.30;;;;;;;6.09;100.00;103849.41;4980703;28;20602;-75
2022/01/13 09:27:28;;;;;;;31.60;19.13;;;;;;;6.16;100.00;103849.00;4966139;28;20241;-76
2022/01/13 09:29:54;;;;;;;38.03;18.87;;;;;;;6.20;100.00;103842.56;4966551;28;20808;-78
2022/01/13 09:32:19;;;;;;;45.13;20.77;;;;;;;5.95;100.00;103816.56;4978429;28;20178;-76
2022/01/13 09:34:45;;;;;;;32.80;18.70;;;;;;;6.01;100.00;103818.84;4984922;28;20666;-75
2022/01/13 09:37:11;;;;;;;42.70;20.20;;;;;;;6.21;100.00;103838.91;4981025;28;20217;-76
2022/01/13 09:39:37;;;;;;;37.57;19.53;;;;;;;5.84;100.00;103771.91;4979539;28;20185;-78
2022/01/13 09:42:04;;;;;;;33.87;20.70;;;;;;;6.29;100.00;103855.28;4976216;28;20468;-75
2022/01/13 09:44:31;;;;;;;34.43;20.13;;;;;;;6.33;100.00;103846.13;4980934;28;20432;-76
2022/01/13 09:46:57;;;;;;;50.13;21.40;;;;;;;5.89;100.00;103777.81;4971643;28;20962;-78
2022/01/13 09:49:22;;;;;;;35.70;19.73;;;;;;;5.25;100.00;103699.25;4965960;28;20456;-80
2022/01/13 09:51:48;;;;;;;38.53;20.73;;;;;;;5.74;100.00;103745.00;4974690;28;20181;-78
2022/01/13 09:54:16;;;;;;;33.53;18.97;;;;;;;6.26;100.00;103868.81;4989142;28;20266;-82
2022/01/13 09:56:41;;;;;;;35.50;19.27;;;;;;;5.74;100.00;103750.34;4983272;28;20205;-78
2022/01/13 09:59:07;;;;;;;36.80;20.27;;;;;;;6.03;100.00;103823.13;4984800;28;20452;-78
2022/01/13 10:01:33;;;;;;;32.13;18.90;;;;;;;5.09;100.00;103670.06;4972606;28;20528;-79
2022/01/13 10:03:58;;;;;;;35.40;21.23;;;;;;;6.11;100.00;103836.84;4963664;28;20510;-78
2022/01/13 10:06:24;;;;;;;34.43;19.10;;;;;;;5.95;100.00;103804.09;4981210;28;21284;-77
2022/01/13 10:08:52;;;;;;;39.23;19.60;;;;;;;6.06;100.00;103840.75;4981744;28;20988;-76
2022/01/13 10:11:34;;;;;;;32.93;19.00;;;;;;;6.08;100.00;103853.03;4980113;28;20319;-77
2022/01/13 10:17:01;;;;;;;31.77;19.17;;;;;;;6.23;100.00;103853.03;4969027;28;20467;-77
2022/01/13 10:19:30;;;;;;;38.03;17.60;;;;;;;5.98;100.00;103803.06;4969331;28;20507;-77
2022/01/13 10:22:07;;;;;;;32.10;17.97;;;;;;;6.09;100.00;103819.22;4983455;28;20464;-78
2022/01/13 10:24:36;;;;;;;29.53;17.50;;;;;;;6.29;100.00;103849.97;4978116;28;20492;-78
2022/01/13 10:27:03;;;;;;;32.47;17.90;;;;;;;6.30;100.00;103841.84;4980029;28;20547;-78
2022/01/13 10:29:58;;;;;;;31.90;17.20;;;;;;;6.29;100.00;103850.81;4977054;28;20523;-79
2022/01/13 10:32:39;;;;;;;29.93;16.93;;;;;;;6.13;100.00;103817.22;4962038;28;20437;-77
2022/01/13 10:35:07;;;;;;;26.33;16.63;;;;;;;6.39;100.00;103845.75;4975920;28;20437;-77
2022/01/13 10:37:44;;;;;;;27.57;17.17;;;;;;;6.11;100.00;103801.34;4984939;28;20441;-78
2022/01/13 10:40:26;;;;;;;27.10;18.43;;;;;;;5.99;100.00;103802.97;4983763;28;20432;-78
2022/01/13 10:45:32;;;;;;;35.80;18.53;;;;;;;6.34;100.00;103832.72;4981149;28;20879;-78
2022/01/13 10:48:15;;;;;;;31.10;18.40;;;;;;;6.28;100.00;103827.78;4976308;28;20434;-78
2022/01/13 10:50:44;;;;;;;35.93;18.97;;;;;;;6.14;100.00;103805.63;4964126;28;20456;-78
2022/01/13 10:53:22;;;;;;;27.20;17.37;;;;;;;6.40;100.00;103818.16;4978471;28;20445;-78
2022/01/13 10:56:14;;;;;;;36.57;19.53;;;;;;;6.23;100.00;103810.38;4985956;28;22044;-78
2022/01/13 10:58:59;;;;;;;31.70;17.77;;;;;;;6.26;100.00;103808.34;4968469;28;20479;-79
2022/01/13 11:01:33;;;;;;;35.90;20.23;;;;;;;6.20;100.00;103787.44;4979363;28;20461;-78
2022/01/13 11:03:58;;;;;;;30.00;18.80;;;;;;;6.26;100.00;103802.19;4985020;28;20437;-78
2022/01/13 11:06:28;;;;;;;33.07;18.97;;;;;;;6.36;100.00;103821.09;4963254;28;20475;-77
2022/01/13 11:08:54;;;;;;;34.37;19.03;;;;;;;5.65;100.00;103716.28;4956959;28;20228;-77
2022/01/13 11:11:22;;;;;;;36.93;22.47;;;;;;;5.86;100.00;103754.88;4976051;28;20448;-76
2022/01/13 11:13:53;;;;;;;39.07;21.30;;;;;;;5.51;100.00;103701.16;4984244;28;20194;-74
2022/01/13 11:16:20;;;;;;;27.87;19.40;;;;;;;6.25;100.00;103816.44;4975984;28;20468;-78
2022/01/13 11:18:46;;;;;;;37.80;20.90;;;;;;;6.25;100.00;103814.66;4973123;28;20447;-78
2022/01/13 11:21:12;;;;;;;36.67;21.20;;;;;;;6.13;100.00;103782.56;4959636;28;20969;-76
2022/01/13 11:23:39;;;;;;;36.30;22.40;;;;;;;6.00;100.00;103751.38;4973115;28;20208;-77
2022/01/13 11:26:06;;;;;;;36.07;20.87;;;;;;;6.25;100.00;103803.13;4963054;28;20464;-76
2022/01/13 11:28:35;;;;;;;32.00;20.17;;;;;;;6.26;100.00;103832.34;4981362;28;20448;-77
2022/01/13 11:31:00;;;;;;;37.63;19.97;;;;;;;6.04;100.00;103800.84;4965211;28;20575;-74
2022/01/13 11:33:26;;;;;;;30.47;19.60;;;;;;;6.28;100.00;103824.28;4986867;28;20523;-75
2022/01/13 11:35:58;;;;;;;36.00;20.93;;;;;;;5.88;100.00;103746.81;4985499;28;20213;-77
2022/01/13 11:38:27;;;;;;;30.90;19.40;;;;;;;5.79;100.00;103747.41;4987897;28;20227;-74